RJTR(METAR)
06/25 13:58
METAR RJTR 250458Z AUTO 16009KT 10SM FEW032 25/18 A3001 RMK AO2
SLP162 T02530180 $=
戻る
トップページへ戻る
IMOC Co,.Ltd.